sensor_id;sensor_type;location;lat;lon;timestamp;temperature;humidity
28374;DHT22;15616;40.148;-102.718;2023-05-10T00:00:57;21.60;56.40
28374;DHT22;15616;40.148;-102.718;2023-05-10T00:03:22;21.60;56.40
28374;DHT22;15616;40.148;-102.718;2023-05-10T00:05:48;21.60;56.40
28374;DHT22;15616;40.148;-102.718;2023-05-10T00:08:14;21.60;56.40
28374;DHT22;15616;40.148;-102.718;2023-05-10T00:10:40;21.60;56.40
28374;DHT22;15616;40.148;-102.718;2023-05-10T00:13:06;21.60;56.40
28374;DHT22;15616;40.148;-102.718;2023-05-10T00:15:31;21.50;56.40
28374;DHT22;15616;40.148;-102.718;2023-05-10T00:17:57;21.50;56.40
28374;DHT22;15616;40.148;-102.718;2023-05-10T00:20:23;21.60;56.40
28374;DHT22;15616;40.148;-102.718;2023-05-10T00:22:49;21.60;56.40
28374;DHT22;15616;40.148;-102.718;2023-05-10T00:25:14;21.60;56.40
28374;DHT22;15616;40.148;-102.718;2023-05-10T00:27:40;21.50;56.40
28374;DHT22;15616;40.148;-102.718;2023-05-10T00:30:06;21.50;56.40
28374;DHT22;15616;40.148;-102.718;2023-05-10T00:32:32;21.60;56.50
28374;DHT22;15616;40.148;-102.718;2023-05-10T00:34:57;21.60;56.40
28374;DHT22;15616;40.148;-102.718;2023-05-10T00:37:23;21.60;56.40
28374;DHT22;15616;40.148;-102.718;2023-05-10T00:39:49;21.60;56.50
28374;DHT22;15616;40.148;-102.718;2023-05-10T00:42:15;21.60;56.40
28374;DHT22;15616;40.148;-102.718;2023-05-10T00:44:41;21.60;56.40
28374;DHT22;15616;40.148;-102.718;2023-05-10T00:47:07;21.60;56.30
28374;DHT22;15616;40.148;-102.718;2023-05-10T00:49:33;21.60;56.40
28374;DHT22;15616;40.148;-102.718;2023-05-10T00:51:59;21.60;56.40
28374;DHT22;15616;40.148;-102.718;2023-05-10T00:54:27;21.60;56.30
28374;DHT22;15616;40.148;-102.718;2023-05-10T00:56:52;21.60;56.40
28374;DHT22;15616;40.148;-102.718;2023-05-10T00:59:18;21.60;56.40
28374;DHT22;15616;40.148;-102.718;2023-05-10T01:01:44;21.60;56.30
28374;DHT22;15616;40.148;-102.718;2023-05-10T01:04:11;21.60;56.40
28374;DHT22;15616;40.148;-102.718;2023-05-10T01:06:38;21.60;56.30
28374;DHT22;15616;40.148;-102.718;2023-05-10T01:09:04;21.60;56.30
28374;DHT22;15616;40.148;-102.718;2023-05-10T01:11:32;21.60;56.40
28374;DHT22;15616;40.148;-102.718;2023-05-10T01:13:58;21.60;56.40
28374;DHT22;15616;40.148;-102.718;2023-05-10T01:16:24;21.50;56.40
28374;DHT22;15616;40.148;-102.718;2023-05-10T01:18:52;21.60;56.40
28374;DHT22;15616;40.148;-102.718;2023-05-10T01:26:39;21.50;56.30
28374;DHT22;15616;40.148;-102.718;2023-05-10T01:34:48;21.60;56.40
28374;DHT22;15616;40.148;-102.718;2023-05-10T01:37:21;21.60;56.30
28374;DHT22;15616;40.148;-102.718;2023-05-10T01:39:59;21.60;56.30
28374;DHT22;15616;40.148;-102.718;2023-05-10T01:42:26;21.60;56.30
28374;DHT22;15616;40.148;-102.718;2023-05-10T01:47:46;21.60;56.30
28374;DHT22;15616;40.148;-102.718;2023-05-10T01:50:18;21.60;56.30
28374;DHT22;15616;40.148;-102.718;2023-05-10T01:52:44;21.60;56.30
28374;DHT22;15616;40.148;-102.718;2023-05-10T01:55:16;21.60;56.30
28374;DHT22;15616;40.148;-102.718;2023-05-10T01:57:44;21.60;56.30
28374;DHT22;15616;40.148;-102.718;2023-05-10T02:00:10;21.60;57.00
28374;DHT22;15616;40.148;-102.718;2023-05-10T02:02:39;21.60;56.20
28374;DHT22;15616;40.148;-102.718;2023-05-10T02:05:07;21.60;56.20
28374;DHT22;15616;40.148;-102.718;2023-05-10T02:07:34;21.60;56.20
28374;DHT22;15616;40.148;-102.718;2023-05-10T02:10:01;21.60;56.20
28374;DHT22;15616;40.148;-102.718;2023-05-10T02:12:28;21.60;56.20
28374;DHT22;15616;40.148;-102.718;2023-05-10T02:14:54;21.60;56.20
28374;DHT22;15616;40.148;-102.718;2023-05-10T02:17:20;21.60;56.20
28374;DHT22;15616;40.148;-102.718;2023-05-10T02:19:46;21.60;56.20
28374;DHT22;15616;40.148;-102.718;2023-05-10T02:22:12;21.60;56.20
28374;DHT22;15616;40.148;-102.718;2023-05-10T02:24:38;21.60;56.20
28374;DHT22;15616;40.148;-102.718;2023-05-10T02:27:05;21.60;56.20
28374;DHT22;15616;40.148;-102.718;2023-05-10T02:29:31;21.60;56.30
28374;DHT22;15616;40.148;-102.718;2023-05-10T02:31:57;21.60;56.30
28374;DHT22;15616;40.148;-102.718;2023-05-10T02:34:27;21.60;56.30
28374;DHT22;15616;40.148;-102.718;2023-05-10T02:36:53;21.60;56.30
28374;DHT22;15616;40.148;-102.718;2023-05-10T02:39:20;21.60;56.30
28374;DHT22;15616;40.148;-102.718;2023-05-10T02:41:46;21.60;56.30
28374;DHT22;15616;40.148;-102.718;2023-05-10T02:44:12;21.60;56.30
28374;DHT22;15616;40.148;-102.718;2023-05-10T02:46:39;21.60;56.30
28374;DHT22;15616;40.148;-102.718;2023-05-10T02:49:05;21.60;56.30
28374;DHT22;15616;40.148;-102.718;2023-05-10T02:51:31;21.60;56.30
28374;DHT22;15616;40.148;-102.718;2023-05-10T02:54:01;21.60;56.30
28374;DHT22;15616;40.148;-102.718;2023-05-10T02:56:31;21.60;56.20
28374;DHT22;15616;40.148;-102.718;2023-05-10T02:58:58;21.60;56.30
28374;DHT22;15616;40.148;-102.718;2023-05-10T03:01:24;21.60;56.20
28374;DHT22;15616;40.148;-102.718;2023-05-10T03:03:49;21.60;56.30
28374;DHT22;15616;40.148;-102.718;2023-05-10T03:06:15;21.60;56.20
28374;DHT22;15616;40.148;-102.718;2023-05-10T03:08:42;21.60;56.30
28374;DHT22;15616;40.148;-102.718;2023-05-10T03:13:44;21.60;56.30
28374;DHT22;15616;40.148;-102.718;2023-05-10T03:16:15;21.60;56.20
28374;DHT22;15616;40.148;-102.718;2023-05-10T03:18:44;21.60;56.20
28374;DHT22;15616;40.148;-102.718;2023-05-10T03:21:13;21.60;56.30
28374;DHT22;15616;40.148;-102.718;2023-05-10T03:23:44;21.50;56.20
28374;DHT22;15616;40.148;-102.718;2023-05-10T03:26:16;21.50;56.20
28374;DHT22;15616;40.148;-102.718;2023-05-10T03:28:43;21.60;56.30
28374;DHT22;15616;40.148;-102.718;2023-05-10T03:31:09;21.60;56.30
28374;DHT22;15616;40.148;-102.718;2023-05-10T03:33:35;21.50;56.30
28374;DHT22;15616;40.148;-102.718;2023-05-10T03:36:00;21.60;56.30
28374;DHT22;15616;40.148;-102.718;2023-05-10T03:38:26;21.50;56.30
28374;DHT22;15616;40.148;-102.718;2023-05-10T03:40:52;21.50;56.30
28374;DHT22;15616;40.148;-102.718;2023-05-10T03:43:17;21.50;56.20
28374;DHT22;15616;40.148;-102.718;2023-05-10T03:45:43;21.50;56.20
28374;DHT22;15616;40.148;-102.718;2023-05-10T03:48:09;21.60;56.30
28374;DHT22;15616;40.148;-102.718;2023-05-10T03:50:34;21.50;56.20
28374;DHT22;15616;40.148;-102.718;2023-05-10T03:53:00;21.50;56.20
28374;DHT22;15616;40.148;-102.718;2023-05-10T03:55:26;21.50;56.20
28374;DHT22;15616;40.148;-102.718;2023-05-10T03:57:52;21.50;56.20
28374;DHT22;15616;40.148;-102.718;2023-05-10T04:00:19;21.50;56.20
28374;DHT22;15616;40.148;-102.718;2023-05-10T04:02:45;21.50;56.20
28374;DHT22;15616;40.148;-102.718;2023-05-10T04:05:10;21.50;56.20
28374;DHT22;15616;40.148;-102.718;2023-05-10T04:07:36;21.50;56.20
28374;DHT22;15616;40.148;-102.718;2023-05-10T04:10:03;21.50;56.20
28374;DHT22;15616;40.148;-102.718;2023-05-10T04:12:30;21.50;56.20
28374;DHT22;15616;40.148;-102.718;2023-05-10T04:14:57;21.50;56.30
28374;DHT22;15616;40.148;-102.718;2023-05-10T04:17:24;21.40;56.30
28374;DHT22;15616;40.148;-102.718;2023-05-10T04:19:49;21.40;56.40
28374;DHT22;15616;40.148;-102.718;2023-05-10T04:22:18;21.40;56.40
28374;DHT22;15616;40.148;-102.718;2023-05-10T04:24:44;21.40;56.40
28374;DHT22;15616;40.148;-102.718;2023-05-10T04:27:09;21.40;56.50
28374;DHT22;15616;40.148;-102.718;2023-05-10T04:29:36;21.40;56.40
28374;DHT22;15616;40.148;-102.718;2023-05-10T04:32:03;21.40;56.40
28374;DHT22;15616;40.148;-102.718;2023-05-10T04:34:29;21.40;56.40
28374;DHT22;15616;40.148;-102.718;2023-05-10T04:36:55;21.40;56.40
28374;DHT22;15616;40.148;-102.718;2023-05-10T04:39:21;21.40;56.50
28374;DHT22;15616;40.148;-102.718;2023-05-10T04:41:47;21.40;56.40
28374;DHT22;15616;40.148;-102.718;2023-05-10T04:44:12;21.40;56.40
28374;DHT22;15616;40.148;-102.718;2023-05-10T04:46:38;21.40;56.40
28374;DHT22;15616;40.148;-102.718;2023-05-10T04:49:04;21.30;56.40
28374;DHT22;15616;40.148;-102.718;2023-05-10T04:51:30;21.40;56.50
28374;DHT22;15616;40.148;-102.718;2023-05-10T04:53:56;21.30;56.40
28374;DHT22;15616;40.148;-102.718;2023-05-10T04:56:22;21.30;56.50
28374;DHT22;15616;40.148;-102.718;2023-05-10T04:58:48;21.30;56.50
28374;DHT22;15616;40.148;-102.718;2023-05-10T05:01:14;21.30;56.50
28374;DHT22;15616;40.148;-102.718;2023-05-10T05:03:40;21.30;56.50
28374;DHT22;15616;40.148;-102.718;2023-05-10T05:06:06;21.30;56.50
28374;DHT22;15616;40.148;-102.718;2023-05-10T05:08:32;21.40;56.50
28374;DHT22;15616;40.148;-102.718;2023-05-10T05:10:58;21.30;56.40
28374;DHT22;15616;40.148;-102.718;2023-05-10T05:13:24;21.40;56.60
28374;DHT22;15616;40.148;-102.718;2023-05-10T05:15:50;21.30;56.50
28374;DHT22;15616;40.148;-102.718;2023-05-10T05:18:16;21.30;56.50
28374;DHT22;15616;40.148;-102.718;2023-05-10T05:20:41;21.30;56.50
28374;DHT22;15616;40.148;-102.718;2023-05-10T05:23:07;21.30;56.50
28374;DHT22;15616;40.148;-102.718;2023-05-10T05:25:33;21.30;56.50
28374;DHT22;15616;40.148;-102.718;2023-05-10T05:27:59;21.30;56.50
28374;DHT22;15616;40.148;-102.718;2023-05-10T05:30:25;21.30;56.50
28374;DHT22;15616;40.148;-102.718;2023-05-10T05:32:50;21.30;56.50
28374;DHT22;15616;40.148;-102.718;2023-05-10T05:35:16;21.30;56.50
28374;DHT22;15616;40.148;-102.718;2023-05-10T05:37:42;21.30;56.50
28374;DHT22;15616;40.148;-102.718;2023-05-10T05:40:08;21.30;56.50
28374;DHT22;15616;40.148;-102.718;2023-05-10T05:42:33;21.40;56.50
28374;DHT22;15616;40.148;-102.718;2023-05-10T05:44:59;21.30;56.50
28374;DHT22;15616;40.148;-102.718;2023-05-10T05:47:25;21.30;56.50
28374;DHT22;15616;40.148;-102.718;2023-05-10T05:49:51;21.30;56.50
28374;DHT22;15616;40.148;-102.718;2023-05-10T05:52:16;21.30;56.50
28374;DHT22;15616;40.148;-102.718;2023-05-10T05:54:43;21.30;56.50
28374;DHT22;15616;40.148;-102.718;2023-05-10T05:57:09;21.30;56.50
28374;DHT22;15616;40.148;-102.718;2023-05-10T05:59:34;21.30;56.50
28374;DHT22;15616;40.148;-102.718;2023-05-10T06:02:00;21.40;56.60
28374;DHT22;15616;40.148;-102.718;2023-05-10T06:04:26;21.30;56.50
28374;DHT22;15616;40.148;-102.718;2023-05-10T06:06:52;21.30;56.50
28374;DHT22;15616;40.148;-102.718;2023-05-10T06:09:17;21.30;56.50
28374;DHT22;15616;40.148;-102.718;2023-05-10T06:11:43;21.30;56.60
28374;DHT22;15616;40.148;-102.718;2023-05-10T06:14:09;21.30;56.50
28374;DHT22;15616;40.148;-102.718;2023-05-10T06:16:35;21.30;56.60
28374;DHT22;15616;40.148;-102.718;2023-05-10T06:19:01;21.30;57.20
28374;DHT22;15616;40.148;-102.718;2023-05-10T06:21:26;21.30;56.50
28374;DHT22;15616;40.148;-102.718;2023-05-10T06:23:52;21.30;56.50
28374;DHT22;15616;40.148;-102.718;2023-05-10T06:26:18;21.30;56.60
28374;DHT22;15616;40.148;-102.718;2023-05-10T06:28:44;21.30;56.60
28374;DHT22;15616;40.148;-102.718;2023-05-10T06:31:09;21.30;56.60
28374;DHT22;15616;40.148;-102.718;2023-05-10T06:33:37;21.30;56.60
28374;DHT22;15616;40.148;-102.718;2023-05-10T06:36:03;21.40;56.60
28374;DHT22;15616;40.148;-102.718;2023-05-10T06:38:29;21.30;56.50
28374;DHT22;15616;40.148;-102.718;2023-05-10T06:40:55;21.30;56.50
28374;DHT22;15616;40.148;-102.718;2023-05-10T06:43:21;21.30;56.50
28374;DHT22;15616;40.148;-102.718;2023-05-10T06:45:47;21.40;56.50
28374;DHT22;15616;40.148;-102.718;2023-05-10T06:48:13;21.40;56.40
28374;DHT22;15616;40.148;-102.718;2023-05-10T06:50:39;21.30;56.40
28374;DHT22;15616;40.148;-102.718;2023-05-10T06:53:04;21.30;56.40
28374;DHT22;15616;40.148;-102.718;2023-05-10T06:55:30;21.40;56.40
28374;DHT22;15616;40.148;-102.718;2023-05-10T06:57:56;21.30;56.40
28374;DHT22;15616;40.148;-102.718;2023-05-10T07:00:22;21.30;56.40
28374;DHT22;15616;40.148;-102.718;2023-05-10T07:02:47;21.30;56.30
28374;DHT22;15616;40.148;-102.718;2023-05-10T07:05:14;21.30;56.40
28374;DHT22;15616;40.148;-102.718;2023-05-10T07:07:40;21.30;56.40
28374;DHT22;15616;40.148;-102.718;2023-05-10T07:10:06;21.30;56.40
28374;DHT22;15616;40.148;-102.718;2023-05-10T07:12:32;21.30;56.40
28374;DHT22;15616;40.148;-102.718;2023-05-10T07:14:58;21.30;56.40
28374;DHT22;15616;40.148;-102.718;2023-05-10T07:17:24;21.40;56.40
28374;DHT22;15616;40.148;-102.718;2023-05-10T07:19:50;21.40;56.30
28374;DHT22;15616;40.148;-102.718;2023-05-10T07:22:16;21.40;56.30
28374;DHT22;15616;40.148;-102.718;2023-05-10T07:24:42;21.40;56.30
28374;DHT22;15616;40.148;-102.718;2023-05-10T07:27:08;21.40;56.30
28374;DHT22;15616;40.148;-102.718;2023-05-10T07:29:34;21.40;56.30
28374;DHT22;15616;40.148;-102.718;2023-05-10T07:32:00;21.40;56.30
28374;DHT22;15616;40.148;-102.718;2023-05-10T07:34:26;21.40;56.30
28374;DHT22;15616;40.148;-102.718;2023-05-10T07:36:52;21.40;56.90
28374;DHT22;15616;40.148;-102.718;2023-05-10T07:39:18;21.40;56.20
28374;DHT22;15616;40.148;-102.718;2023-05-10T07:41:46;21.40;56.30
28374;DHT22;15616;40.148;-102.718;2023-05-10T07:44:11;21.40;56.20
28374;DHT22;15616;40.148;-102.718;2023-05-10T07:46:37;21.40;56.20
28374;DHT22;15616;40.148;-102.718;2023-05-10T07:49:03;21.50;56.30
28374;DHT22;15616;40.148;-102.718;2023-05-10T07:51:29;21.40;56.30
28374;DHT22;15616;40.148;-102.718;2023-05-10T07:53:55;21.50;56.40
28374;DHT22;15616;40.148;-102.718;2023-05-10T07:56:24;21.50;56.40
28374;DHT22;15616;40.148;-102.718;2023-05-10T07:58:52;21.50;56.30
28374;DHT22;15616;40.148;-102.718;2023-05-10T08:01:18;21.50;56.30
28374;DHT22;15616;40.148;-102.718;2023-05-10T08:03:45;21.50;56.30
28374;DHT22;15616;40.148;-102.718;2023-05-10T08:06:10;21.50;56.30
28374;DHT22;15616;40.148;-102.718;2023-05-10T08:08:36;21.50;56.30
28374;DHT22;15616;40.148;-102.718;2023-05-10T08:11:03;21.50;56.30
28374;DHT22;15616;40.148;-102.718;2023-05-10T08:13:28;21.50;56.30
28374;DHT22;15616;40.148;-102.718;2023-05-10T08:15:54;21.50;56.30
28374;DHT22;15616;40.148;-102.718;2023-05-10T08:18:20;21.50;56.20
28374;DHT22;15616;40.148;-102.718;2023-05-10T08:20:46;21.60;56.30
28374;DHT22;15616;40.148;-102.718;2023-05-10T08:23:12;21.60;56.20
28374;DHT22;15616;40.148;-102.718;2023-05-10T08:25:38;21.60;56.20
28374;DHT22;15616;40.148;-102.718;2023-05-10T08:28:04;21.60;56.20
28374;DHT22;15616;40.148;-102.718;2023-05-10T08:30:30;21.60;56.20
28374;DHT22;15616;40.148;-102.718;2023-05-10T08:32:56;21.60;56.10
28374;DHT22;15616;40.148;-102.718;2023-05-10T08:35:21;21.60;56.10
28374;DHT22;15616;40.148;-102.718;2023-05-10T08:37:47;21.60;56.10
28374;DHT22;15616;40.148;-102.718;2023-05-10T08:40:13;21.60;56.00
28374;DHT22;15616;40.148;-102.718;2023-05-10T08:42:40;21.60;56.00
28374;DHT22;15616;40.148;-102.718;2023-05-10T08:45:08;21.60;56.00
28374;DHT22;15616;40.148;-102.718;2023-05-10T08:47:35;21.70;56.00
28374;DHT22;15616;40.148;-102.718;2023-05-10T08:50:01;21.60;55.90
28374;DHT22;15616;40.148;-102.718;2023-05-10T08:52:28;21.60;56.00
28374;DHT22;15616;40.148;-102.718;2023-05-10T08:54:55;21.60;56.00
28374;DHT22;15616;40.148;-102.718;2023-05-10T08:57:20;21.60;56.00
28374;DHT22;15616;40.148;-102.718;2023-05-10T08:59:46;21.60;56.00
28374;DHT22;15616;40.148;-102.718;2023-05-10T09:02:12;21.60;55.90
28374;DHT22;15616;40.148;-102.718;2023-05-10T09:04:38;21.70;56.00
28374;DHT22;15616;40.148;-102.718;2023-05-10T09:07:04;21.70;56.00
28374;DHT22;15616;40.148;-102.718;2023-05-10T09:09:30;21.70;56.00
28374;DHT22;15616;40.148;-102.718;2023-05-10T09:11:56;21.60;55.90
28374;DHT22;15616;40.148;-102.718;2023-05-10T09:14:23;21.70;55.90
28374;DHT22;15616;40.148;-102.718;2023-05-10T09:16:48;21.70;55.90
28374;DHT22;15616;40.148;-102.718;2023-05-10T09:19:15;21.70;55.90
28374;DHT22;15616;40.148;-102.718;2023-05-10T09:21:40;21.70;55.90
28374;DHT22;15616;40.148;-102.718;2023-05-10T09:24:07;21.70;55.80
28374;DHT22;15616;40.148;-102.718;2023-05-10T09:26:33;21.70;55.90
28374;DHT22;15616;40.148;-102.718;2023-05-10T09:29:00;21.70;55.80
28374;DHT22;15616;40.148;-102.718;2023-05-10T09:31:49;21.70;55.80
28374;DHT22;15616;40.148;-102.718;2023-05-10T09:34:31;21.70;55.80
28374;DHT22;15616;40.148;-102.718;2023-05-10T09:36:59;21.70;55.80
28374;DHT22;15616;40.148;-102.718;2023-05-10T09:39:38;21.70;55.80
28374;DHT22;15616;40.148;-102.718;2023-05-10T09:42:05;21.70;55.80
28374;DHT22;15616;40.148;-102.718;2023-05-10T09:44:31;21.70;55.70
28374;DHT22;15616;40.148;-102.718;2023-05-10T09:46:57;21.80;55.70
28374;DHT22;15616;40.148;-102.718;2023-05-10T09:49:23;21.80;55.70
28374;DHT22;15616;40.148;-102.718;2023-05-10T09:52:06;21.80;55.60
28374;DHT22;15616;40.148;-102.718;2023-05-10T09:54:32;21.80;55.60
28374;DHT22;15616;40.148;-102.718;2023-05-10T09:56:58;21.80;55.60
28374;DHT22;15616;40.148;-102.718;2023-05-10T09:59:27;21.80;55.50
28374;DHT22;15616;40.148;-102.718;2023-05-10T10:01:53;21.90;55.50
28374;DHT22;15616;40.148;-102.718;2023-05-10T10:04:21;21.90;55.50
28374;DHT22;15616;40.148;-102.718;2023-05-10T10:06:47;21.90;55.50
28374;DHT22;15616;40.148;-102.718;2023-05-10T10:09:23;21.90;55.50
28374;DHT22;15616;40.148;-102.718;2023-05-10T10:11:49;21.90;55.40
28374;DHT22;15616;40.148;-102.718;2023-05-10T10:14:16;21.90;55.50
28374;DHT22;15616;40.148;-102.718;2023-05-10T10:16:43;21.90;55.50
28374;DHT22;15616;40.148;-102.718;2023-05-10T10:19:09;21.90;55.40
28374;DHT22;15616;40.148;-102.718;2023-05-10T10:21:35;21.90;55.40
28374;DHT22;15616;40.148;-102.718;2023-05-10T10:24:01;21.90;55.40
28374;DHT22;15616;40.148;-102.718;2023-05-10T10:26:26;21.90;55.40
28374;DHT22;15616;40.148;-102.718;2023-05-10T10:31:40;21.90;55.40
28374;DHT22;15616;40.148;-102.718;2023-05-10T10:34:10;21.90;55.40
28374;DHT22;15616;40.148;-102.718;2023-05-10T10:36:40;21.90;55.50
28374;DHT22;15616;40.148;-102.718;2023-05-10T10:39:08;21.90;55.50
28374;DHT22;15616;40.148;-102.718;2023-05-10T10:41:35;21.80;55.40
28374;DHT22;15616;40.148;-102.718;2023-05-10T10:49:23;21.90;55.40
28374;DHT22;15616;40.148;-102.718;2023-05-10T10:52:31;21.90;55.40
28374;DHT22;15616;40.148;-102.718;2023-05-10T10:54:38;21.90;55.40
28374;DHT22;15616;40.148;-102.718;2023-05-10T10:57:13;21.80;55.40
28374;DHT22;15616;40.148;-102.718;2023-05-10T10:59:41;21.90;55.40
28374;DHT22;15616;40.148;-102.718;2023-05-10T11:02:08;21.90;55.30
28374;DHT22;15616;40.148;-102.718;2023-05-10T11:04:41;21.90;55.30
28374;DHT22;15616;40.148;-102.718;2023-05-10T11:07:17;21.90;55.30
28374;DHT22;15616;40.148;-102.718;2023-05-10T11:09:43;21.90;55.30
28374;DHT22;15616;40.148;-102.718;2023-05-10T11:12:09;22.00;55.30
28374;DHT22;15616;40.148;-102.718;2023-05-10T11:14:35;22.00;55.20
28374;DHT22;15616;40.148;-102.718;2023-05-10T11:17:01;22.00;55.20
28374;DHT22;15616;40.148;-102.718;2023-05-10T11:19:27;22.00;55.20
28374;DHT22;15616;40.148;-102.718;2023-05-10T11:24:31;21.90;55.20
28374;DHT22;15616;40.148;-102.718;2023-05-10T11:26:57;21.90;55.20
28374;DHT22;15616;40.148;-102.718;2023-05-10T11:29:22;21.90;55.20
28374;DHT22;15616;40.148;-102.718;2023-05-10T11:31:49;22.00;55.20
28374;DHT22;15616;40.148;-102.718;2023-05-10T11:34:27;22.00;55.20
28374;DHT22;15616;40.148;-102.718;2023-05-10T11:36:55;22.00;55.20
28374;DHT22;15616;40.148;-102.718;2023-05-10T11:39:21;22.00;55.20
28374;DHT22;15616;40.148;-102.718;2023-05-10T11:41:50;22.00;55.10
28374;DHT22;15616;40.148;-102.718;2023-05-10T11:44:16;22.00;55.10
28374;DHT22;15616;40.148;-102.718;2023-05-10T11:46:42;22.00;55.10
28374;DHT22;15616;40.148;-102.718;2023-05-10T11:49:08;22.00;55.10
28374;DHT22;15616;40.148;-102.718;2023-05-10T11:51:34;22.00;55.00
28374;DHT22;15616;40.148;-102.718;2023-05-10T11:54:01;22.00;55.00
28374;DHT22;15616;40.148;-102.718;2023-05-10T11:56:28;22.10;55.00
28374;DHT22;15616;40.148;-102.718;2023-05-10T11:58:54;22.10;55.00
28374;DHT22;15616;40.148;-102.718;2023-05-10T12:01:21;22.10;55.00
28374;DHT22;15616;40.148;-102.718;2023-05-10T12:03:47;22.00;54.90
28374;DHT22;15616;40.148;-102.718;2023-05-10T12:06:13;22.10;54.90
28374;DHT22;15616;40.148;-102.718;2023-05-10T12:08:43;22.10;54.90
28374;DHT22;15616;40.148;-102.718;2023-05-10T12:11:09;22.10;54.90
28374;DHT22;15616;40.148;-102.718;2023-05-10T12:13:39;22.10;55.00
28374;DHT22;15616;40.148;-102.718;2023-05-10T12:16:18;22.10;54.90
28374;DHT22;15616;40.148;-102.718;2023-05-10T12:18:44;22.10;54.90
28374;DHT22;15616;40.148;-102.718;2023-05-10T12:21:11;22.10;54.90
28374;DHT22;15616;40.148;-102.718;2023-05-10T12:23:37;22.10;54.90
28374;DHT22;15616;40.148;-102.718;2023-05-10T12:26:03;22.10;54.90
28374;DHT22;15616;40.148;-102.718;2023-05-10T12:28:30;22.10;54.90
28374;DHT22;15616;40.148;-102.718;2023-05-10T12:30:57;22.10;54.90
28374;DHT22;15616;40.148;-102.718;2023-05-10T12:33:23;22.10;54.90
28374;DHT22;15616;40.148;-102.718;2023-05-10T12:35:54;22.10;54.90
28374;DHT22;15616;40.148;-102.718;2023-05-10T12:38:34;22.10;54.90
28374;DHT22;15616;40.148;-102.718;2023-05-10T12:41:01;22.10;54.90
28374;DHT22;15616;40.148;-102.718;2023-05-10T12:43:27;22.10;54.90
28374;DHT22;15616;40.148;-102.718;2023-05-10T12:45:53;22.10;54.90
28374;DHT22;15616;40.148;-102.718;2023-05-10T12:48:19;22.10;54.80
28374;DHT22;15616;40.148;-102.718;2023-05-10T12:50:45;22.20;54.80
28374;DHT22;15616;40.148;-102.718;2023-05-10T12:53:15;22.20;54.90
28374;DHT22;15616;40.148;-102.718;2023-05-10T12:55:41;22.10;55.50
28374;DHT22;15616;40.148;-102.718;2023-05-10T12:58:07;22.20;54.80
28374;DHT22;15616;40.148;-102.718;2023-05-10T13:00:33;22.20;54.80
28374;DHT22;15616;40.148;-102.718;2023-05-10T13:02:59;22.20;54.80
28374;DHT22;15616;40.148;-102.718;2023-05-10T13:05:24;22.20;54.80
28374;DHT22;15616;40.148;-102.718;2023-05-10T13:07:50;22.20;54.80
28374;DHT22;15616;40.148;-102.718;2023-05-10T13:10:16;22.20;54.80
28374;DHT22;15616;40.148;-102.718;2023-05-10T13:12:41;22.20;54.80
28374;DHT22;15616;40.148;-102.718;2023-05-10T13:15:07;22.20;54.80
28374;DHT22;15616;40.148;-102.718;2023-05-10T13:17:33;22.20;54.80
28374;DHT22;15616;40.148;-102.718;2023-05-10T13:19:58;22.20;54.70
28374;DHT22;15616;40.148;-102.718;2023-05-10T13:22:25;22.30;54.80
28374;DHT22;15616;40.148;-102.718;2023-05-10T13:24:50;22.30;54.70
28374;DHT22;15616;40.148;-102.718;2023-05-10T13:27:16;22.30;54.70
28374;DHT22;15616;40.148;-102.718;2023-05-10T13:29:42;22.20;54.60
28374;DHT22;15616;40.148;-102.718;2023-05-10T13:32:07;22.20;54.60
28374;DHT22;15616;40.148;-102.718;2023-05-10T13:34:33;22.20;54.60
28374;DHT22;15616;40.148;-102.718;2023-05-10T13:37:01;22.30;54.70
28374;DHT22;15616;40.148;-102.718;2023-05-10T13:39:26;22.20;54.60
28374;DHT22;15616;40.148;-102.718;2023-05-10T13:41:52;22.20;54.60
28374;DHT22;15616;40.148;-102.718;2023-05-10T13:44:19;22.30;54.70
28374;DHT22;15616;40.148;-102.718;2023-05-10T13:46:45;22.30;54.60
28374;DHT22;15616;40.148;-102.718;2023-05-10T13:49:11;22.30;54.60
28374;DHT22;15616;40.148;-102.718;2023-05-10T13:51:37;22.30;54.60
28374;DHT22;15616;40.148;-102.718;2023-05-10T13:54:03;22.30;54.50
28374;DHT22;15616;40.148;-102.718;2023-05-10T13:56:29;22.30;54.40
28374;DHT22;15616;40.148;-102.718;2023-05-10T13:58:55;22.30;54.40
28374;DHT22;15616;40.148;-102.718;2023-05-10T14:01:22;22.30;54.40
28374;DHT22;15616;40.148;-102.718;2023-05-10T14:03:48;22.30;54.50
28374;DHT22;15616;40.148;-102.718;2023-05-10T14:06:14;22.30;54.40
28374;DHT22;15616;40.148;-102.718;2023-05-10T14:08:40;22.30;54.40
28374;DHT22;15616;40.148;-102.718;2023-05-10T14:11:05;22.40;54.40
28374;DHT22;15616;40.148;-102.718;2023-05-10T14:13:31;22.30;54.40
28374;DHT22;15616;40.148;-102.718;2023-05-10T14:15:57;22.30;54.40
28374;DHT22;15616;40.148;-102.718;2023-05-10T14:18:24;22.30;54.40
28374;DHT22;15616;40.148;-102.718;2023-05-10T14:20:49;22.30;54.50
28374;DHT22;15616;40.148;-102.718;2023-05-10T14:23:15;22.30;54.40
28374;DHT22;15616;40.148;-102.718;2023-05-10T14:25:41;22.30;54.40
28374;DHT22;15616;40.148;-102.718;2023-05-10T14:28:07;22.30;54.30
28374;DHT22;15616;40.148;-102.718;2023-05-10T14:30:32;22.30;54.40
28374;DHT22;15616;40.148;-102.718;2023-05-10T14:33:00;22.30;54.40
28374;DHT22;15616;40.148;-102.718;2023-05-10T14:35:26;22.30;54.40
28374;DHT22;15616;40.148;-102.718;2023-05-10T14:37:52;22.30;54.40
28374;DHT22;15616;40.148;-102.718;2023-05-10T14:40:18;22.30;54.40
28374;DHT22;15616;40.148;-102.718;2023-05-10T14:42:44;22.30;54.40
28374;DHT22;15616;40.148;-102.718;2023-05-10T14:45:10;22.30;54.40
28374;DHT22;15616;40.148;-102.718;2023-05-10T14:47:36;22.30;54.40
28374;DHT22;15616;40.148;-102.718;2023-05-10T14:50:02;22.30;54.40
28374;DHT22;15616;40.148;-102.718;2023-05-10T14:52:27;22.30;54.40
28374;DHT22;15616;40.148;-102.718;2023-05-10T14:54:53;22.20;54.30
28374;DHT22;15616;40.148;-102.718;2023-05-10T14:57:19;22.30;54.40
28374;DHT22;15616;40.148;-102.718;2023-05-10T14:59:45;22.30;54.30
28374;DHT22;15616;40.148;-102.718;2023-05-10T15:02:11;22.30;54.30
28374;DHT22;15616;40.148;-102.718;2023-05-10T15:04:36;22.20;54.30
28374;DHT22;15616;40.148;-102.718;2023-05-10T15:07:03;22.20;54.40
28374;DHT22;15616;40.148;-102.718;2023-05-10T15:09:28;22.30;54.40
28374;DHT22;15616;40.148;-102.718;2023-05-10T15:11:54;22.20;54.40